Time;durP1;ratioP1;P1;durP2;ratioP2;P2;SDS_P1;SDS_P2;PMS_P1;PMS_P2;Temp;Humidity;BMP_temperature;BMP_pressure;BME280_temperature;BME280_humidity;BME280_pressure;Samples;Min_cycle;Max_cycle;Signal;HPM_P1;HPM_P2
2021/09/01 00:00:54;;;;;;;3.58;2.70;;;22.00;95.90;;;;;;5026211;28;20461;-64
2021/09/01 00:03:19;;;;;;;3.65;2.70;;;22.00;96.00;;;;;;5020113;28;20029;-64
2021/09/01 00:05:45;;;;;;;4.28;2.53;;;22.00;95.80;;;;;;5026982;28;20033;-64
2021/09/01 00:08:10;;;;;;;2.85;2.53;;;22.00;95.70;;;;;;5029619;28;20061;-64
2021/09/01 00:10:36;;;;;;;3.05;2.10;;;21.90;95.80;;;;;;5032329;28;20124;-64
2021/09/01 00:13:03;;;;;;;4.05;2.78;;;21.90;95.80;;;;;;5029871;28;20025;-64
2021/09/01 00:15:29;;;;;;;4.50;3.13;;;21.80;95.90;;;;;;5026753;28;20037;-63
2021/09/01 00:17:54;;;;;;;4.43;3.75;;;21.80;95.80;;;;;;5030577;28;20128;-63
2021/09/01 00:20:20;;;;;;;3.25;2.95;;;21.80;96.10;;;;;;5031876;28;20018;-63
2021/09/01 00:22:46;;;;;;;2.60;2.40;;;21.70;96.10;;;;;;5032186;28;20053;-63
2021/09/01 00:25:11;;;;;;;4.57;2.88;;;21.70;96.10;;;;;;5031247;28;20036;-64
2021/09/01 00:27:38;;;;;;;4.50;2.60;;;21.70;96.10;;;;;;5033352;28;20033;-64
2021/09/01 00:30:05;;;;;;;3.63;3.33;;;21.70;96.20;;;;;;5033127;28;20025;-64
2021/09/01 00:32:31;;;;;;;5.70;3.55;;;21.70;96.00;;;;;;5029579;28;20534;-64
2021/09/01 00:34:56;;;;;;;6.38;3.28;;;21.70;96.20;;;;;;5029684;28;20057;-64
2021/09/01 00:37:24;;;;;;;7.63;3.13;;;21.70;96.50;;;;;;5032124;28;20064;-64
2021/09/01 00:39:50;;;;;;;4.53;3.53;;;21.60;96.30;;;;;;5025279;28;20017;-64
2021/09/01 00:42:15;;;;;;;4.00;2.90;;;21.60;96.60;;;;;;5032093;28;20040;-64
2021/09/01 00:44:41;;;;;;;3.45;2.88;;;21.60;96.80;;;;;;5031006;28;20096;-64
2021/09/01 00:47:07;;;;;;;4.80;3.13;;;21.50;96.50;;;;;;5026031;28;20030;-64
2021/09/01 00:49:33;;;;;;;3.88;2.75;;;21.50;96.60;;;;;;5032092;28;20075;-64
2021/09/01 00:52:03;;;;;;;4.35;2.95;;;21.40;96.80;;;;;;5036279;28;20151;-64
2021/09/01 00:54:30;;;;;;;4.90;3.25;;;21.40;97.10;;;;;;5026892;28;20112;-64
2021/09/01 00:57:00;;;;;;;4.40;3.20;;;21.50;97.20;;;;;;5033541;28;20116;-64
2021/09/01 00:59:34;;;;;;;4.28;2.65;;;21.40;97.20;;;;;;5030854;28;20025;-64
2021/09/01 01:02:01;;;;;;;4.68;2.78;;;21.40;97.50;;;;;;5031675;28;20046;-64
2021/09/01 01:04:27;;;;;;;3.92;2.72;;;21.40;97.30;;;;;;5030678;28;20061;-64
2021/09/01 01:07:04;;;;;;;3.38;2.90;;;21.40;97.50;;;;;;5034793;28;20033;-64
2021/09/01 01:09:32;;;;;;;4.45;2.95;;;21.40;97.50;;;;;;5028557;28;20022;-64
2021/09/01 01:12:00;;;;;;;4.28;3.85;;;21.40;97.50;;;;;;5035586;28;20471;-64
2021/09/01 01:14:27;;;;;;;3.63;3.22;;;21.20;97.70;;;;;;5034397;28;20028;-66
2021/09/01 01:16:53;;;;;;;3.63;3.33;;;21.30;97.80;;;;;;5033842;28;20033;-64
2021/09/01 01:19:20;;;;;;;5.78;3.50;;;21.20;97.70;;;;;;5034342;28;20022;-63
2021/09/01 01:21:46;;;;;;;4.20;3.80;;;21.30;98.10;;;;;;5033886;28;20025;-65
2021/09/01 01:24:12;;;;;;;3.40;3.10;;;21.30;98.10;;;;;;5026718;28;20151;-63
2021/09/01 01:26:38;;;;;;;5.32;3.25;;;21.40;98.20;;;;;;5034810;28;20501;-64
2021/09/01 01:29:07;;;;;;;4.78;3.03;;;21.40;98.00;;;;;;5030626;28;20018;-64
2021/09/01 01:31:36;;;;;;;4.13;3.03;;;21.50;98.40;;;;;;5035201;28;20045;-63
2021/09/01 01:34:02;;;;;;;7.38;3.83;;;21.50;98.20;;;;;;5031500;28;20546;-65
2021/09/01 01:36:27;;;;;;;5.70;3.47;;;21.40;98.30;;;;;;5020785;28;20065;-65
2021/09/01 01:38:53;;;;;;;6.22;3.67;;;21.40;98.10;;;;;;5028561;28;20143;-64
2021/09/01 01:41:19;;;;;;;4.97;3.70;;;21.40;98.00;;;;;;5028157;28;20037;-65
2021/09/01 01:43:46;;;;;;;4.05;3.22;;;21.30;98.10;;;;;;5032203;28;20021;-65
2021/09/01 01:46:12;;;;;;;4.38;3.38;;;21.40;98.30;;;;;;5035027;28;20033;-65
2021/09/01 01:48:37;;;;;;;4.15;3.75;;;21.40;98.30;;;;;;5030129;28;20095;-65
2021/09/01 01:51:03;;;;;;;5.95;4.03;;;21.30;98.40;;;;;;5034983;28;20021;-65
2021/09/01 01:53:30;;;;;;;5.22;3.97;;;21.20;98.60;;;;;;5033609;28;20109;-65
2021/09/01 01:55:55;;;;;;;4.20;3.75;;;21.10;99.30;;;;;;5022854;28;20040;-64
2021/09/01 01:58:21;;;;;;;4.47;3.95;;;21.10;99.60;;;;;;5032183;28;20104;-65
2021/09/01 02:00:47;;;;;;;4.88;3.90;;;21.10;99.70;;;;;;5028574;28;20029;-64
2021/09/01 02:03:13;;;;;;;6.07;4.72;;;21.10;99.90;;;;;;5033005;28;20030;-64
2021/09/01 02:05:38;;;;;;;4.65;4.15;;;21.00;99.90;;;;;;5033375;28;20117;-64
2021/09/01 02:08:04;;;;;;;4.68;4.28;;;21.10;99.90;;;;;;5034677;28;20479;-64
2021/09/01 02:10:30;;;;;;;5.82;5.10;;;21.00;99.90;;;;;;5033435;28;20088;-64
2021/09/01 02:12:55;;;;;;;4.88;4.47;;;21.10;99.90;;;;;;5032605;28;20459;-63
2021/09/01 02:15:21;;;;;;;5.78;4.97;;;21.00;99.90;;;;;;5027656;28;20068;-64
2021/09/01 02:17:47;;;;;;;5.00;4.53;;;21.10;99.90;;;;;;5034328;28;20029;-64
2021/09/01 02:20:14;;;;;;;5.35;4.75;;;21.00;99.90;;;;;;5029922;28;20057;-65
2021/09/01 02:22:40;;;;;;;4.78;4.38;;;20.90;99.90;;;;;;5023960;28;20029;-63
2021/09/01 02:25:07;;;;;;;5.32;4.55;;;21.00;99.90;;;;;;5025082;28;20073;-64
2021/09/01 02:27:33;;;;;;;5.55;4.43;;;21.00;99.90;;;;;;5029555;28;20025;-63
2021/09/01 02:29:59;;;;;;;4.88;4.47;;;20.90;99.90;;;;;;5032183;28;20040;-63
2021/09/01 02:32:24;;;;;;;6.65;4.47;;;20.90;99.90;;;;;;5030688;28;20046;-63
2021/09/01 02:34:50;;;;;;;4.90;4.40;;;20.90;99.90;;;;;;5029501;28;20026;-63
2021/09/01 02:37:16;;;;;;;4.38;4.07;;;20.90;99.90;;;;;;5031891;28;20394;-63
2021/09/01 02:39:42;;;;;;;4.88;4.32;;;20.90;99.90;;;;;;5027550;28;20025;-64
2021/09/01 02:42:07;;;;;;;4.55;4.00;;;20.90;99.90;;;;;;5029595;28;20060;-63
2021/09/01 02:44:33;;;;;;;4.30;3.90;;;21.00;99.90;;;;;;5025778;28;20125;-64
2021/09/01 02:46:59;;;;;;;4.78;4.28;;;21.00;99.90;;;;;;5033777;28;20108;-64
2021/09/01 02:49:25;;;;;;;5.00;4.50;;;20.90;99.90;;;;;;5030581;28;20021;-64
2021/09/01 02:51:50;;;;;;;5.43;4.25;;;20.90;99.90;;;;;;5025145;28;20079;-64
2021/09/01 02:54:16;;;;;;;4.60;3.83;;;20.80;99.90;;;;;;5032775;28;20108;-64
2021/09/01 02:56:42;;;;;;;4.25;3.78;;;20.90;99.90;;;;;;5032436;28;20037;-64
2021/09/01 02:59:08;;;;;;;6.53;4.22;;;20.90;99.90;;;;;;5032607;28;20047;-64
2021/09/01 03:01:33;;;;;;;7.43;4.70;;;20.90;99.90;;;;;;5031668;28;20025;-64
2021/09/01 03:03:59;;;;;;;6.22;4.22;;;20.90;99.90;;;;;;5030479;28;20033;-64
2021/09/01 03:06:24;;;;;;;6.03;4.07;;;20.90;99.90;;;;;;5032885;28;20379;-64
2021/09/01 03:08:50;;;;;;;4.25;3.85;;;20.90;99.90;;;;;;5019199;28;20021;-64
2021/09/01 03:11:16;;;;;;;4.30;3.88;;;20.90;99.90;;;;;;5032562;28;20029;-63
2021/09/01 03:13:42;;;;;;;3.90;3.55;;;20.90;99.90;;;;;;5025189;28;20109;-64
2021/09/01 03:16:08;;;;;;;6.13;3.67;;;20.90;99.90;;;;;;5045409;28;20097;-64
2021/09/01 03:18:34;;;;;;;5.22;3.60;;;20.90;99.90;;;;;;5033469;28;20408;-63
2021/09/01 03:20:59;;;;;;;4.13;3.75;;;20.90;99.90;;;;;;5021821;28;20104;-63
2021/09/01 03:23:25;;;;;;;4.40;3.65;;;20.90;99.90;;;;;;5030596;28;20053;-63
2021/09/01 03:25:50;;;;;;;4.22;3.63;;;20.90;99.90;;;;;;5026812;28;20099;-64
2021/09/01 03:28:16;;;;;;;5.30;3.58;;;20.80;99.90;;;;;;5025351;28;20028;-64
2021/09/01 03:30:41;;;;;;;4.90;3.40;;;20.80;99.90;;;;;;5038303;28;20509;-64
2021/09/01 03:33:07;;;;;;;6.13;3.80;;;20.80;99.90;;;;;;5032341;28;20049;-64
2021/09/01 03:35:32;;;;;;;5.35;3.92;;;20.90;99.90;;;;;;5030459;28;20057;-63
2021/09/01 03:38:01;;;;;;;3.90;3.50;;;20.70;99.90;;;;;;5032509;28;20112;-63
2021/09/01 03:40:27;;;;;;;4.38;3.88;;;20.80;99.90;;;;;;5042633;28;20030;-63
2021/09/01 03:42:53;;;;;;;7.03;3.78;;;20.80;99.90;;;;;;5021983;28;20095;-65
2021/09/01 03:45:18;;;;;;;3.45;3.15;;;20.80;99.90;;;;;;5026667;28;20034;-64
2021/09/01 03:47:44;;;;;;;4.85;3.75;;;20.80;99.90;;;;;;5030773;28;20024;-63
2021/09/01 03:50:13;;;;;;;6.47;3.40;;;20.80;99.90;;;;;;5031560;28;20033;-64
2021/09/01 03:52:40;;;;;;;3.17;2.80;;;20.80;99.90;;;;;;5014774;28;20040;-64
2021/09/01 03:55:09;;;;;;;4.95;3.00;;;20.80;99.90;;;;;;5030994;28;20032;-64
2021/09/01 03:57:38;;;;;;;3.63;3.30;;;20.70;99.90;;;;;;5023443;28;20041;-64
2021/09/01 04:00:08;;;;;;;3.50;2.80;;;20.80;99.90;;;;;;5043312;28;20107;-64
2021/09/01 04:02:34;;;;;;;3.17;2.88;;;20.80;99.90;;;;;;5032618;28;20401;-64
2021/09/01 04:05:04;;;;;;;5.03;3.55;;;20.80;99.90;;;;;;5021843;28;20026;-64
2021/09/01 04:07:29;;;;;;;4.57;3.30;;;20.70;99.90;;;;;;5031533;28;20124;-64
2021/09/01 04:09:55;;;;;;;3.08;2.83;;;20.80;99.90;;;;;;5019781;28;20064;-63
2021/09/01 04:12:21;;;;;;;3.15;2.83;;;20.70;99.90;;;;;;5031590;28;20124;-63
2021/09/01 04:14:46;;;;;;;3.33;3.03;;;20.80;99.90;;;;;;5029302;28;20061;-63
2021/09/01 04:17:12;;;;;;;4.13;3.38;;;20.70;99.90;;;;;;5027818;28;20033;-64
2021/09/01 04:19:37;;;;;;;6.38;3.55;;;20.70;99.90;;;;;;5030722;28;20124;-64
2021/09/01 04:22:08;;;;;;;4.30;3.40;;;20.60;99.90;;;;;;5030741;28;20017;-64
2021/09/01 04:24:34;;;;;;;3.08;2.85;;;20.70;99.90;;;;;;5030183;28;20085;-63
2021/09/01 04:27:00;;;;;;;4.03;3.63;;;20.70;99.90;;;;;;5025489;28;20041;-63
2021/09/01 04:29:25;;;;;;;4.78;3.20;;;20.70;99.90;;;;;;5022039;28;20106;-63
2021/09/01 04:31:54;;;;;;;3.95;3.55;;;20.60;99.90;;;;;;5031857;28;20376;-63
2021/09/01 04:34:20;;;;;;;6.13;3.63;;;20.70;99.90;;;;;;5029741;28;20509;-64
2021/09/01 04:36:45;;;;;;;4.78;3.17;;;20.70;99.90;;;;;;5031833;28;20124;-64
2021/09/01 04:39:11;;;;;;;7.30;4.07;;;20.70;99.90;;;;;;5025053;28;20037;-63
2021/09/01 04:41:36;;;;;;;6.53;3.63;;;20.70;99.90;;;;;;5031873;28;20029;-64
2021/09/01 04:44:02;;;;;;;3.53;3.22;;;20.60;99.90;;;;;;5030714;28;20026;-64
2021/09/01 04:46:27;;;;;;;6.55;3.33;;;20.60;99.90;;;;;;5021516;28;20092;-64
2021/09/01 04:48:53;;;;;;;3.75;3.45;;;20.60;99.90;;;;;;5028039;28;20511;-64
2021/09/01 04:51:19;;;;;;;3.83;3.15;;;20.60;99.90;;;;;;5019958;28;20029;-64
2021/09/01 04:53:44;;;;;;;4.75;3.88;;;20.60;99.90;;;;;;5031824;28;20379;-64
2021/09/01 04:56:10;;;;;;;4.50;3.67;;;20.60;99.90;;;;;;5030658;28;20048;-64
2021/09/01 04:58:35;;;;;;;4.93;3.70;;;20.60;99.90;;;;;;5027265;28;20022;-64
2021/09/01 05:01:01;;;;;;;6.68;3.78;;;20.60;99.90;;;;;;5025264;28;20025;-64
2021/09/01 05:03:27;;;;;;;5.65;3.50;;;20.60;99.90;;;;;;5030319;28;20021;-64
2021/09/01 05:05:52;;;;;;;4.68;3.75;;;20.60;99.90;;;;;;5025428;28;20069;-64
2021/09/01 05:08:18;;;;;;;7.10;3.70;;;20.60;99.90;;;;;;5031715;28;20100;-64
2021/09/01 05:10:43;;;;;;;5.72;3.67;;;20.60;99.90;;;;;;5028576;28;20037;-65
2021/09/01 05:13:09;;;;;;;3.63;3.30;;;20.60;99.90;;;;;;5024796;28;20128;-64
2021/09/01 05:15:35;;;;;;;3.90;3.50;;;20.60;99.90;;;;;;5031437;28;20052;-64
2021/09/01 05:18:00;;;;;;;6.10;3.47;;;20.50;99.90;;;;;;5028078;28;20376;-64
2021/09/01 05:20:39;;;;;;;4.55;3.85;;;20.60;99.90;;;;;;5030317;28;20021;-64
2021/09/01 05:23:07;;;;;;;6.30;3.88;;;20.60;99.90;;;;;;5029626;28;20026;-64
2021/09/01 05:25:44;;;;;;;5.30;3.92;;;20.60;99.90;;;;;;5031404;28;20026;-64
2021/09/01 05:28:15;;;;;;;5.47;3.40;;;20.60;99.90;;;;;;5030131;28;20030;-64
2021/09/01 05:30:45;;;;;;;8.20;3.67;;;20.60;99.90;;;;;;5028414;28;20100;-64
2021/09/01 05:33:12;;;;;;;4.65;3.92;;;20.50;99.90;;;;;;5027341;28;20064;-64
2021/09/01 05:35:38;;;;;;;4.03;3.40;;;20.60;99.90;;;;;;5034848;28;20025;-64
2021/09/01 05:38:04;;;;;;;6.18;3.50;;;20.60;99.90;;;;;;5027843;28;20034;-64
2021/09/01 05:40:30;;;;;;;7.28;4.00;;;20.70;99.90;;;;;;5032841;28;20041;-64
2021/09/01 05:42:58;;;;;;;10.55;4.00;;;20.70;99.90;;;;;;5027569;28;20030;-64
2021/09/01 05:45:24;;;;;;;5.32;3.78;;;20.70;99.90;;;;;;5034802;28;20475;-64
2021/09/01 05:47:50;;;;;;;7.18;3.83;;;20.70;99.90;;;;;;5028565;28;20033;-64
2021/09/01 05:50:16;;;;;;;7.13;4.38;;;20.70;99.90;;;;;;5031640;28;20025;-64
2021/09/01 05:52:42;;;;;;;6.45;4.43;;;20.70;99.90;;;;;;5029573;28;20064;-64
2021/09/01 05:55:10;;;;;;;5.25;3.67;;;20.70;99.90;;;;;;5032329;28;20036;-64
2021/09/01 05:57:41;;;;;;;4.13;3.50;;;20.60;99.90;;;;;;5029618;28;20132;-63
2021/09/01 06:00:07;;;;;;;7.00;4.05;;;20.70;99.90;;;;;;5032121;28;20087;-64
2021/09/01 06:02:50;;;;;;;4.72;3.65;;;20.70;99.90;;;;;;5023679;28;20029;-64
2021/09/01 06:05:16;;;;;;;7.22;3.88;;;20.70;99.90;;;;;;5047704;28;20404;-64
2021/09/01 06:08:00;;;;;;;5.68;4.00;;;20.80;99.90;;;;;;5032956;28;20395;-64
2021/09/01 06:10:33;;;;;;;4.30;3.55;;;20.80;99.90;;;;;;5028575;28;20117;-64
2021/09/01 06:13:04;;;;;;;4.72;4.00;;;20.70;99.90;;;;;;5024407;28;20034;-64
2021/09/01 06:15:31;;;;;;;6.85;3.90;;;20.80;99.90;;;;;;5020435;28;20025;-64
2021/09/01 06:17:58;;;;;;;5.00;3.92;;;20.80;99.90;;;;;;5027284;28;20048;-64
2021/09/01 06:20:24;;;;;;;7.40;4.47;;;20.90;99.90;;;;;;5044891;28;20116;-65
2021/09/01 06:22:49;;;;;;;6.75;4.63;;;20.90;99.90;;;;;;5029738;28;20120;-64
2021/09/01 06:25:15;;;;;;;5.20;4.70;;;20.90;99.90;;;;;;5031189;28;20136;-64
2021/09/01 06:27:41;;;;;;;8.27;4.95;;;21.00;99.90;;;;;;5031394;28;20030;-64
2021/09/01 06:30:07;;;;;;;5.82;4.30;;;21.00;99.90;;;;;;5031250;28;20076;-64
2021/09/01 06:32:33;;;;;;;6.20;4.63;;;21.10;99.90;;;;;;5029017;28;20076;-64
2021/09/01 06:34:58;;;;;;;6.38;4.45;;;21.00;99.90;;;;;;5027825;28;20061;-64
2021/09/01 06:37:24;;;;;;;7.82;4.68;;;21.10;99.90;;;;;;5027385;28;20132;-64
2021/09/01 06:39:51;;;;;;;5.70;4.10;;;21.10;99.90;;;;;;5019855;28;20022;-64
2021/09/01 06:42:18;;;;;;;8.98;4.75;;;21.20;99.90;;;;;;5030881;28;20491;-64
2021/09/01 06:44:44;;;;;;;6.65;4.60;;;21.20;99.90;;;;;;5022213;28;20022;-64
2021/09/01 06:47:09;;;;;;;8.32;4.93;;;21.30;99.90;;;;;;5019006;28;20443;-64
2021/09/01 06:49:35;;;;;;;6.70;5.20;;;21.40;99.90;;;;;;5027264;28;20052;-64
2021/09/01 06:52:01;;;;;;;12.75;5.35;;;21.40;99.90;;;;;;5025185;28;20021;-64
2021/09/01 06:54:26;;;;;;;5.95;4.40;;;21.40;99.90;;;;;;5021758;28;20475;-64
2021/09/01 06:56:52;;;;;;;6.38;4.95;;;21.50;99.90;;;;;;5029899;28;20037;-64
2021/09/01 06:59:17;;;;;;;5.80;4.38;;;21.50;99.90;;;;;;5029676;28;20089;-64
2021/09/01 07:01:43;;;;;;;6.13;4.35;;;21.50;99.50;;;;;;5031315;28;20462;-64
2021/09/01 07:04:08;;;;;;;6.22;4.63;;;21.60;99.60;;;;;;5024258;28;20025;-64
2021/09/01 07:06:34;;;;;;;7.47;5.40;;;21.60;99.60;;;;;;5031247;28;20352;-65
2021/09/01 07:09:00;;;;;;;6.70;4.97;;;21.60;98.60;;;;;;5029825;28;20021;-64
2021/09/01 07:12:06;;;;;;;6.63;5.00;;;21.60;99.10;;;;;;5017813;28;20384;-64
2021/09/01 07:14:31;;;;;;;15.13;4.35;;;21.60;98.00;;;;;;5018339;28;20483;-64
2021/09/01 07:16:57;;;;;;;6.32;3.80;;;21.60;98.60;;;;;;5019198;28;20040;-64
2021/09/01 07:19:23;;;;;;;4.93;3.95;;;21.70;98.70;;;;;;5020138;28;20029;-64
2021/09/01 07:21:48;;;;;;;9.60;4.43;;;21.70;98.50;;;;;;5025928;28;20025;-64
2021/09/01 07:24:14;;;;;;;8.80;4.25;;;21.80;98.30;;;;;;5022976;28;20026;-64
2021/09/01 07:26:39;;;;;;;6.03;3.20;;;21.70;98.30;;;;;;5018829;28;20034;-64
2021/09/01 07:29:05;;;;;;;7.95;4.00;;;21.80;98.00;;;;;;5019284;28;20033;-64
2021/09/01 07:31:31;;;;;;;4.50;2.78;;;21.90;97.70;;;;;;5028659;28;20033;-64
2021/09/01 07:34:16;;;;;;;5.15;2.92;;;21.80;97.00;;;;;;5020600;28;20033;-64
2021/09/01 07:36:42;;;;;;;2.60;2.40;;;21.90;96.50;;;;;;5024702;28;20399;-64
2021/09/01 07:39:07;;;;;;;4.57;2.55;;;21.90;96.90;;;;;;5026043;28;20025;-64
2021/09/01 07:41:33;;;;;;;5.30;2.60;;;22.00;96.10;;;;;;5022512;28;20030;-64
2021/09/01 07:43:59;;;;;;;4.35;2.50;;;21.90;95.90;;;;;;5022931;28;20034;-64
2021/09/01 07:46:25;;;;;;;3.88;2.30;;;22.00;96.30;;;;;;5022026;28;20036;-63
2021/09/01 07:48:50;;;;;;;5.53;3.05;;;22.00;96.10;;;;;;5022908;28;20030;-63
2021/09/01 07:51:16;;;;;;;6.40;2.50;;;22.00;96.10;;;;;;5022521;28;20021;-62
2021/09/01 07:53:42;;;;;;;2.92;2.63;;;22.00;95.50;;;;;;5024557;28;20032;-62
2021/09/01 07:56:07;;;;;;;3.08;2.25;;;22.10;95.50;;;;;;5023221;28;20475;-62
2021/09/01 07:58:33;;;;;;;3.10;1.88;;;22.10;95.60;;;;;;5025990;28;20024;-62
2021/09/01 08:01:00;;;;;;;3.17;2.08;;;22.10;95.20;;;;;;5015472;28;20479;-62
2021/09/01 08:03:27;;;;;;;5.40;2.63;;;22.10;94.80;;;;;;5036661;28;20029;-63
2021/09/01 08:05:53;;;;;;;6.28;2.60;;;22.20;95.30;;;;;;5019890;28;20025;-62
2021/09/01 08:08:19;;;;;;;3.80;2.20;;;22.20;95.10;;;;;;5022508;28;20041;-62
2021/09/01 08:10:44;;;;;;;5.82;2.67;;;22.20;94.50;;;;;;5022257;28;20117;-62
2021/09/01 08:13:10;;;;;;;7.15;3.33;;;22.30;95.00;;;;;;5021622;28;20087;-62
2021/09/01 08:15:35;;;;;;;5.72;3.42;;;22.30;94.80;;;;;;5016929;28;20061;-63
2021/09/01 08:18:01;;;;;;;5.03;3.45;;;22.30;95.20;;;;;;5025574;28;20087;-62
2021/09/01 08:20:27;;;;;;;5.55;2.67;;;22.30;95.10;;;;;;5022313;28;20428;-62
2021/09/01 08:22:52;;;;;;;8.38;3.00;;;22.40;94.50;;;;;;5022277;28;20040;-62
2021/09/01 08:25:18;;;;;;;3.65;2.40;;;22.40;94.30;;;;;;5017559;28;20036;-62
2021/09/01 08:27:46;;;;;;;7.40;3.15;;;22.50;94.20;;;;;;5023392;28;20037;-56
2021/09/01 08:30:13;;;;;;;7.53;3.15;;;22.50;94.00;;;;;;5017701;28;20537;-59
2021/09/01 08:32:38;;;;;;;6.47;2.72;;;22.50;93.80;;;;;;5019433;28;20049;-59
2021/09/01 08:35:04;;;;;;;4.15;2.90;;;22.60;93.40;;;;;;5023295;28;20026;-59
2021/09/01 08:37:30;;;;;;;5.55;2.65;;;22.60;93.40;;;;;;5028102;28;20387;-63
2021/09/01 08:39:56;;;;;;;10.07;2.65;;;22.70;93.00;;;;;;5029950;28;20048;-62
2021/09/01 08:42:25;;;;;;;3.83;2.17;;;22.70;93.10;;;;;;5030751;28;20098;-62
2021/09/01 08:44:50;;;;;;;4.00;2.33;;;22.80;92.80;;;;;;5028046;28;20120;-63
2021/09/01 08:47:17;;;;;;;3.08;2.65;;;22.80;92.60;;;;;;5026108;28;20100;-62
2021/09/01 08:49:45;;;;;;;3.38;1.92;;;22.90;92.10;;;;;;5031742;28;20014;-63
2021/09/01 08:52:11;;;;;;;3.03;2.45;;;22.90;92.60;;;;;;5024962;28;20026;-63
2021/09/01 08:54:36;;;;;;;3.75;2.05;;;23.00;92.00;;;;;;5031768;28;20534;-63
2021/09/01 08:57:02;;;;;;;2.50;2.08;;;23.00;92.10;;;;;;5028448;28;20037;-62
2021/09/01 08:59:28;;;;;;;5.85;2.88;;;23.10;91.90;;;;;;5027998;28;20037;-62
2021/09/01 09:01:55;;;;;;;2.75;2.50;;;23.20;91.70;;;;;;5024855;28;20022;-62
2021/09/01 09:04:24;;;;;;;2.97;2.42;;;23.20;91.50;;;;;;5026678;28;20029;-61
2021/09/01 09:06:51;;;;;;;5.68;3.45;;;23.20;91.40;;;;;;5029216;28;20069;-62
2021/09/01 09:09:22;;;;;;;8.30;7.55;;;23.30;91.60;;;;;;5047509;28;20395;-62
2021/09/01 09:11:49;;;;;;;8.43;6.78;;;23.40;91.20;;;;;;5035478;28;20033;-62
2021/09/01 09:14:29;;;;;;;5.63;5.13;;;23.40;91.70;;;;;;5031768;28;20506;-61
2021/09/01 09:16:59;;;;;;;5.82;4.40;;;23.40;91.80;;;;;;5029350;28;20037;-60
2021/09/01 09:19:48;;;;;;;5.00;3.35;;;23.50;91.70;;;;;;5029420;28;20029;-62
2021/09/01 09:22:22;;;;;;;3.72;2.70;;;23.70;92.40;;;;;;5023321;28;20032;-62
2021/09/01 09:25:06;;;;;;;;;;;23.70;92.40;;;;;;5031295;28;20033;-62
2021/09/01 09:27:40;;;;;;;6.18;3.10;;;23.70;92.20;;;;;;5034134;28;19956;-63
2021/09/01 09:30:23;;;;;;;5.60;3.22;;;23.80;92.40;;;;;;5029554;28;20025;-61
2021/09/01 09:32:59;;;;;;;4.20;3.40;;;23.90;92.30;;;;;;5032391;28;20041;-61
2021/09/01 09:35:27;;;;;;;8.48;3.58;;;24.00;92.90;;;;;;5034112;28;20105;-62
2021/09/01 09:38:04;;;;;;;5.80;3.63;;;23.90;93.20;;;;;;5028395;28;20033;-61
2021/09/01 09:40:36;;;;;;;5.60;2.95;;;23.90;93.90;;;;;;5033653;28;20029;-61
2021/09/01 09:43:18;;;;;;;4.07;3.03;;;23.80;93.00;;;;;;5031514;28;20029;-62
2021/09/01 09:45:45;;;;;;;4.15;3.10;;;23.90;93.90;;;;;;5032246;28;20383;-62
2021/09/01 09:48:11;;;;;;;4.80;3.03;;;23.90;93.80;;;;;;5033452;28;20021;-62
2021/09/01 09:50:44;;;;;;;8.05;2.90;;;24.10;93.50;;;;;;5034445;28;20104;-63
2021/09/01 09:53:11;;;;;;;6.03;4.00;;;24.20;93.90;;;;;;5028619;28;20050;-62
2021/09/01 09:55:36;;;;;;;5.45;2.83;;;24.20;94.30;;;;;;5029813;28;20087;-63
2021/09/01 09:58:03;;;;;;;6.97;3.50;;;24.30;93.50;;;;;;5031606;28;20041;-62
2021/09/01 10:00:30;;;;;;;4.43;3.53;;;24.40;94.10;;;;;;5034676;28;20060;-63
2021/09/01 10:02:56;;;;;;;8.15;3.72;;;24.40;91.70;;;;;;5033478;28;20034;-62
2021/09/01 10:05:23;;;;;;;5.60;3.33;;;24.40;92.20;;;;;;5028347;28;20066;-63
2021/09/01 10:07:50;;;;;;;4.70;3.80;;;24.40;92.60;;;;;;5027316;28;20042;-63
2021/09/01 10:10:17;;;;;;;4.13;2.67;;;24.30;92.40;;;;;;5032080;28;20014;-62
2021/09/01 10:12:47;;;;;;;6.47;3.05;;;24.50;92.50;;;;;;5028312;28;20029;-63
2021/09/01 10:15:27;;;;;;;5.75;3.60;;;24.60;92.30;;;;;;5032765;28;20029;-63
2021/09/01 10:17:59;;;;;;;5.45;3.67;;;24.80;92.50;;;;;;5031068;28;20131;-63
2021/09/01 10:20:26;;;;;;;5.35;3.47;;;24.80;92.10;;;;;;5031085;28;20025;-63
2021/09/01 10:23:03;;;;;;;4.88;3.78;;;24.80;92.90;;;;;;5033029;28;20072;-63
2021/09/01 10:25:51;;;;;;;5.00;4.50;;;25.00;93.20;;;;;;5030737;28;20132;-62
2021/09/01 10:28:20;;;;;;;5.80;3.92;;;25.00;92.50;;;;;;5028396;28;20029;-63
2021/09/01 10:31:14;;;;;;;4.28;3.78;;;24.90;93.40;;;;;;5034079;28;20096;-63
2021/09/01 10:33:52;;;;;;;5.18;4.07;;;25.00;93.10;;;;;;5032736;28;20045;-63
2021/09/01 10:36:26;;;;;;;5.57;3.75;;;25.00;93.10;;;;;;5026658;28;20041;-63
2021/09/01 10:38:53;;;;;;;;;;;25.10;93.40;;;;;;5033131;28;20033;-63
2021/09/01 10:41:32;;;;;;;6.05;4.28;;;25.30;93.30;;;;;;5029727;28;19909;-63
2021/09/01 10:44:13;;;;;;;10.93;5.72;;;25.20;87.40;;;;;;5027020;28;20049;-63
2021/09/01 10:46:51;;;;;;;8.82;6.60;;;25.30;94.50;;;;;;5032238;28;20057;-63
2021/09/01 10:49:24;;;;;;;6.07;5.13;;;25.30;83.70;;;;;;5024355;28;20029;-63
2021/09/01 10:51:52;;;;;;;9.57;4.93;;;25.40;82.40;;;;;;5030322;28;20040;-63
2021/09/01 10:54:31;;;;;;;4.95;4.50;;;25.70;82.90;;;;;;5032388;28;20029;-63
2021/09/01 10:57:01;;;;;;;6.80;4.88;;;25.60;82.40;;;;;;5026205;28;20033;-63
2021/09/01 10:59:28;;;;;;;6.13;4.82;;;25.50;82.70;;;;;;5031892;28;20021;-63
2021/09/01 11:02:15;;;;;;;7.68;5.30;;;25.70;82.30;;;;;;5027487;28;20032;-63
2021/09/01 11:04:47;;;;;;;6.28;4.50;;;25.80;81.20;;;;;;5030955;28;20044;-63
2021/09/01 11:07:23;;;;;;;7.85;4.57;;;25.80;81.00;;;;;;5024711;28;20048;-63
2021/09/01 11:10:05;;;;;;;5.80;4.95;;;25.90;80.50;;;;;;5026487;28;20228;-63
2021/09/01 11:12:33;;;;;;;7.80;5.25;;;26.10;81.20;;;;;;5022889;28;20033;-62
2021/09/01 11:14:59;;;;;;;7.15;5.18;;;26.10;73.90;;;;;;5030630;28;20593;-63
2021/09/01 11:17:27;;;;;;;7.93;6.57;;;26.20;74.70;;;;;;5031724;28;20113;-63
2021/09/01 11:20:00;;;;;;;8.25;5.55;;;26.40;77.70;;;;;;5028727;28;20026;-63
2021/09/01 11:22:29;;;;;;;7.28;4.65;;;26.40;78.20;;;;;;5032915;28;20100;-63
2021/09/01 11:25:03;;;;;;;7.18;5.63;;;26.50;74.00;;;;;;5030791;28;20029;-64
2021/09/01 11:27:30;;;;;;;5.90;4.38;;;26.50;74.90;;;;;;5031933;28;20037;-62
2021/09/01 11:30:10;;;;;;;5.03;4.53;;;26.50;69.20;;;;;;5026529;28;20047;-62
2021/09/01 11:32:36;;;;;;;7.30;4.90;;;26.60;69.80;;;;;;5020212;28;20049;-64
2021/09/01 11:35:08;;;;;;;5.30;4.88;;;26.50;71.20;;;;;;5028036;28;20395;-63
2021/09/01 11:37:34;;;;;;;7.20;5.35;;;26.70;69.50;;;;;;5021712;28;20432;-62
2021/09/01 11:40:00;;;;;;;4.78;4.38;;;27.10;68.50;;;;;;5026892;28;20037;-62
2021/09/01 11:42:25;;;;;;;5.03;3.90;;;27.10;65.90;;;;;;5032323;28;20506;-62
2021/09/01 11:44:56;;;;;;;5.47;3.58;;;27.10;65.30;;;;;;5026345;28;20029;-63
2021/09/01 11:47:22;;;;;;;9.45;5.65;;;27.30;63.80;;;;;;5032321;28;20014;-63
2021/09/01 11:49:50;;;;;;;6.22;5.28;;;27.80;62.10;;;;;;5046341;28;20079;-62
2021/09/01 11:52:32;;;;;;;7.07;4.90;;;28.00;67.90;;;;;;5021554;28;20033;-62
2021/09/01 11:54:58;;;;;;;6.00;3.88;;;31.60;54.50;;;;;;5028474;28;20109;-62
2021/09/01 11:57:26;;;;;;;5.82;4.25;;;33.50;57.20;;;;;;5029139;28;20038;-63
2021/09/01 11:59:52;;;;;;;4.72;4.22;;;34.00;40.50;;;;;;5031024;28;20025;-63
2021/09/01 12:02:27;;;;;;;4.28;3.30;;;33.50;38.60;;;;;;5032095;28;20470;-63
2021/09/01 12:04:53;;;;;;;7.78;5.78;;;32.30;40.50;;;;;;5022496;28;20379;-63
2021/09/01 12:07:29;;;;;;;8.30;4.45;;;31.90;40.80;;;;;;5031936;28;20025;-62
